createdAt,value
2018-09-15T00:02:09.340Z,85.24
2018-09-15T00:04:37.944Z,85.00
2018-09-15T00:07:07.071Z,85.80
2018-09-15T00:09:36.609Z,83.85
2018-09-15T00:12:05.084Z,85.90
2018-09-15T00:14:33.990Z,87.03
2018-09-15T00:17:02.566Z,85.86
2018-09-15T00:19:31.082Z,85.57
2018-09-15T00:21:59.569Z,85.32
2018-09-15T00:24:28.043Z,84.21
2018-09-15T00:26:56.647Z,84.31
2018-09-15T00:29:25.146Z,84.79
2018-09-15T00:31:54.829Z,84.04
2018-09-15T00:34:23.360Z,83.26
2018-09-15T00:36:52.687Z,84.66
2018-09-15T00:39:21.192Z,86.03
2018-09-15T00:41:50.233Z,85.28
2018-09-15T00:44:18.692Z,85.05
2018-09-15T00:46:47.876Z,85.90
2018-09-15T00:49:17.105Z,85.36
2018-09-15T00:51:45.667Z,87.01
2018-09-15T00:54:14.312Z,86.63
2018-09-15T00:56:43.569Z,86.53
2018-09-15T00:59:14.874Z,88.16
2018-09-15T01:01:43.408Z,87.64
2018-09-15T01:04:11.887Z,87.60
2018-09-15T01:06:40.416Z,88.02
2018-09-15T01:09:09.839Z,87.76
2018-09-15T01:11:38.489Z,87.37
2018-09-15T01:14:07.416Z,88.22
2018-09-15T01:16:37.404Z,87.95
2018-09-15T01:19:06.137Z,87.83
2018-09-15T01:21:35.007Z,87.28
2018-09-15T01:24:03.533Z,86.89
2018-09-15T01:26:32.039Z,87.01
2018-09-15T01:29:00.574Z,87.73
2018-09-15T01:31:29.594Z,87.49
2018-09-15T01:33:58.055Z,89.44
2018-09-15T01:36:26.540Z,89.48
2018-09-15T01:38:56.288Z,87.89
2018-09-15T01:41:24.798Z,89.94
2018-09-15T01:43:53.415Z,89.56
2018-09-15T01:46:22.033Z,90.44
2018-09-15T01:48:50.616Z,89.60
2018-09-15T01:51:20.655Z,89.24
2018-09-15T01:53:49.273Z,89.46
2018-09-15T01:56:17.735Z,89.95
2018-09-15T01:58:46.823Z,90.91
2018-09-15T02:01:15.320Z,91.35
2018-09-15T02:03:43.783Z,89.58
2018-09-15T02:06:12.273Z,89.27
2018-09-15T02:08:40.734Z,88.28
2018-09-15T02:11:09.219Z,89.15
2018-09-15T02:13:37.647Z,89.08
2018-09-15T02:16:06.282Z,88.61
2018-09-15T02:18:34.816Z,88.02
2018-09-15T02:21:06.476Z,89.17
2018-09-15T02:23:35.077Z,88.45
2018-09-15T02:26:03.553Z,88.49
2018-09-15T02:28:32.065Z,89.34
2018-09-15T02:31:00.554Z,89.23
2018-09-15T02:33:29.004Z,88.86
2018-09-15T02:35:57.538Z,89.14
2018-09-15T02:38:26.532Z,88.79
2018-09-15T02:40:55.044Z,88.12
2018-09-15T02:43:23.580Z,88.99
2018-09-15T02:45:52.041Z,88.85
2018-09-15T02:48:20.554Z,88.48
2018-09-15T02:50:49.136Z,87.04
2018-09-15T02:53:17.574Z,88.70
2018-09-15T02:55:46.058Z,87.73
2018-09-15T02:58:14.531Z,87.99
2018-09-15T03:00:43.077Z,85.82
2018-09-15T03:03:11.584Z,87.31
2018-09-15T03:05:40.089Z,88.12
2018-09-15T03:08:08.592Z,88.88
2018-09-15T03:10:37.799Z,88.37
2018-09-15T03:13:06.865Z,89.76
2018-09-15T03:15:35.511Z,88.56
2018-09-15T03:18:04.025Z,89.46
2018-09-15T03:20:32.615Z,90.05
2018-09-15T03:23:01.130Z,89.90
2018-09-15T03:25:29.663Z,90.29
2018-09-15T03:27:58.215Z,89.39
2018-09-15T03:30:26.755Z,89.45
2018-09-15T03:32:55.808Z,90.02
2018-09-15T03:35:24.499Z,90.55
2018-09-15T03:37:53.020Z,88.49
2018-09-15T03:40:21.668Z,89.51
2018-09-15T03:42:50.237Z,89.92
2018-09-15T03:45:18.668Z,89.13
2018-09-15T03:47:47.166Z,88.41
2018-09-15T03:50:15.681Z,86.06
2018-09-15T03:52:44.269Z,88.56
2018-09-15T03:55:12.720Z,85.68
2018-09-15T03:57:41.203Z,87.78
2018-09-15T04:00:10.361Z,89.35
2018-09-15T04:02:38.902Z,88.71
2018-09-15T04:05:07.414Z,88.17
2018-09-15T04:09:05.043Z,86.51
2018-09-15T04:11:33.528Z,85.64
2018-09-15T04:14:02.525Z,85.10
2018-09-15T04:16:31.458Z,84.74
2018-09-15T04:18:59.970Z,84.15
2018-09-15T04:21:28.525Z,85.28
2018-09-15T04:23:57.058Z,87.18
2018-09-15T04:26:26.027Z,87.22
2018-09-15T04:28:55.271Z,85.72
2018-09-15T04:31:23.691Z,84.65
2018-09-15T04:33:52.836Z,85.55
2018-09-15T04:36:21.335Z,85.97
2018-09-15T04:38:51.367Z,85.86
2018-09-15T04:41:19.870Z,86.20
2018-09-15T04:43:48.392Z,85.37
2018-09-15T04:46:16.798Z,85.34
2018-09-15T04:48:45.368Z,85.87
2018-09-15T04:51:13.856Z,85.70
2018-09-15T04:53:42.327Z,85.57
2018-09-15T04:56:11.501Z,85.10
2018-09-15T04:58:40.142Z,84.01
2018-09-15T05:01:08.668Z,84.65
2018-09-15T05:03:37.253Z,84.09
2018-09-15T05:06:05.755Z,83.77
2018-09-15T05:08:34.895Z,83.72
2018-09-15T05:11:03.430Z,84.04
2018-09-15T05:13:31.920Z,82.71
2018-09-15T05:16:01.149Z,85.17
2018-09-15T05:18:29.633Z,85.89
2018-09-15T05:20:58.077Z,85.30
2018-09-15T05:23:26.558Z,88.57
2018-09-15T05:25:55.049Z,84.79
2018-09-15T05:28:23.529Z,85.65
2018-09-15T05:30:51.976Z,88.43
2018-09-15T05:33:20.493Z,87.32
2018-09-15T05:35:49.026Z,88.18
2018-09-15T05:38:17.563Z,87.91
2018-09-15T05:40:46.118Z,87.35
2018-09-15T05:43:16.056Z,85.53
2018-09-15T05:45:45.206Z,86.42
2018-09-15T05:48:13.915Z,85.91
2018-09-15T05:50:42.635Z,86.53
2018-09-15T05:53:11.147Z,87.21
2018-09-15T05:55:39.630Z,86.76
2018-09-15T05:58:08.535Z,83.54
2018-09-15T06:00:37.189Z,86.35
2018-09-15T06:03:05.580Z,86.87
2018-09-15T06:05:34.036Z,85.78
2018-09-15T06:08:02.596Z,86.95
2018-09-15T06:10:31.066Z,86.24
2018-09-15T06:12:59.580Z,87.60
2018-09-15T06:15:28.070Z,88.82
2018-09-15T06:17:56.608Z,88.62
2018-09-15T06:20:26.662Z,88.71
2018-09-15T06:22:55.245Z,88.25
2018-09-15T06:25:23.717Z,86.83
2018-09-15T06:27:52.280Z,87.06
2018-09-15T06:30:21.100Z,86.33
2018-09-15T06:32:49.731Z,87.31
2018-09-15T06:35:18.308Z,84.18
2018-09-15T06:37:46.922Z,84.92
2018-09-15T06:40:15.404Z,85.46
2018-09-15T06:42:43.927Z,88.17
2018-09-15T06:45:12.715Z,83.57
2018-09-15T06:47:41.242Z,83.92
2018-09-15T06:50:09.799Z,84.24
2018-09-15T06:52:38.328Z,81.99
2018-09-15T06:55:06.884Z,78.83
2018-09-15T06:57:35.418Z,81.91
2018-09-15T07:00:04.234Z,79.96
2018-09-15T07:02:32.728Z,78.52
2018-09-15T07:05:01.208Z,78.40
2018-09-15T07:07:29.665Z,78.66
2018-09-15T07:09:58.981Z,76.64
2018-09-15T07:12:27.442Z,75.18
2018-09-15T07:14:55.926Z,76.28
2018-09-15T07:17:24.390Z,74.50
2018-09-15T07:19:53.074Z,74.96
2018-09-15T07:22:21.555Z,72.96
2018-09-15T07:24:50.739Z,70.09
2018-09-15T07:27:19.212Z,66.49
2018-09-15T07:29:47.666Z,67.23
2018-09-15T07:32:16.230Z,70.05
2018-09-15T07:34:44.756Z,70.08
2018-09-15T07:37:13.247Z,69.68
2018-09-15T07:39:43.074Z,69.48
2018-09-15T07:42:11.575Z,67.30
2018-09-15T07:44:40.147Z,67.24
2018-09-15T07:47:08.606Z,63.68
2018-09-15T07:49:37.126Z,60.14
2018-09-15T07:52:05.619Z,61.98
2018-09-15T07:54:34.157Z,59.79
2018-09-15T07:57:03.149Z,59.81
2018-09-15T07:59:31.740Z,59.69
2018-09-15T08:02:00.323Z,57.48
2018-09-15T08:04:28.839Z,56.48
2018-09-15T08:06:57.960Z,58.25
2018-09-15T08:09:26.519Z,56.33
2018-09-15T08:11:55.146Z,55.60
2018-09-15T08:14:23.839Z,55.67
2018-09-15T08:16:52.367Z,55.26
2018-09-15T08:19:20.943Z,50.44
2018-09-15T08:21:50.875Z,47.73
2018-09-15T08:24:19.438Z,46.59
2018-09-15T08:26:48.550Z,46.25
2018-09-15T08:29:17.173Z,46.47
2018-09-15T08:31:46.188Z,47.37
2018-09-15T08:34:15.719Z,44.09
2018-09-15T08:36:44.359Z,46.57
2018-09-15T08:39:12.980Z,43.55
2018-09-15T08:41:41.577Z,43.16
2018-09-15T08:44:11.308Z,42.43
2018-09-15T08:46:41.537Z,40.91
2018-09-15T08:49:10.268Z,40.47
2018-09-15T08:51:38.910Z,43.34
2018-09-15T08:54:07.478Z,43.04
2018-09-15T08:56:36.008Z,41.09
2018-09-15T08:59:04.547Z,40.53
2018-09-15T09:01:34.092Z,45.04
2018-09-15T09:04:02.939Z,46.81
2018-09-15T09:06:31.624Z,44.34
2018-09-15T09:09:00.102Z,42.90
2018-09-15T09:11:28.616Z,44.39
2018-09-15T09:13:57.184Z,45.43
2018-09-15T09:16:26.717Z,43.80
2018-09-15T09:18:55.360Z,44.44
2018-09-15T09:21:23.916Z,47.70
2018-09-15T09:23:52.523Z,43.15
2018-09-15T09:26:21.251Z,43.81
2018-09-15T09:28:49.853Z,41.54
2018-09-15T09:31:18.433Z,42.84
2018-09-15T09:33:46.908Z,44.08
2018-09-15T09:36:15.465Z,47.09
2018-09-15T09:38:44.104Z,49.18
2018-09-15T09:41:12.660Z,47.13
2018-09-15T09:43:41.224Z,47.96
2018-09-15T09:46:10.308Z,47.57
2018-09-15T09:48:38.887Z,45.61
2018-09-15T09:51:07.988Z,46.55
2018-09-15T09:53:37.095Z,41.69
2018-09-15T09:56:05.673Z,41.25
2018-09-15T09:58:35.730Z,41.12
2018-09-15T10:01:09.517Z,39.51
2018-09-15T10:03:37.964Z,38.67
2018-09-15T10:06:06.555Z,37.45
2018-09-15T10:08:36.239Z,39.07
2018-09-15T10:11:05.748Z,43.75
2018-09-15T10:13:34.252Z,42.68
2018-09-15T10:16:02.941Z,41.82
2018-09-15T10:18:31.828Z,39.83
2018-09-15T10:21:00.516Z,40.55
2018-09-15T10:23:29.684Z,40.62
2018-09-15T10:25:58.283Z,39.03
2018-09-15T10:28:26.827Z,40.62
2018-09-15T10:30:55.435Z,40.46
2018-09-15T10:33:23.975Z,37.71
2018-09-15T10:35:52.528Z,36.31
2018-09-15T10:38:21.412Z,33.80
2018-09-15T10:40:50.168Z,35.02
2018-09-15T10:43:18.881Z,37.09
2018-09-15T10:45:47.478Z,38.61
2018-09-15T10:48:16.594Z,36.23
2018-09-15T10:50:45.183Z,38.04
2018-09-15T10:53:13.672Z,36.52
2018-09-15T10:55:42.448Z,38.57
2018-09-15T10:58:13.055Z,38.59
2018-09-15T11:00:41.548Z,40.14
2018-09-15T11:03:10.723Z,38.72
2018-09-15T11:05:39.268Z,35.56
2018-09-15T11:08:08.671Z,36.08
2018-09-15T11:10:37.193Z,37.20
2018-09-15T11:13:06.364Z,35.36
2018-09-15T11:18:02.513Z,36.58
2018-09-15T11:20:31.028Z,35.84
2018-09-15T11:22:59.702Z,37.41
2018-09-15T11:25:29.440Z,36.26
2018-09-15T11:27:58.047Z,38.79
2018-09-15T11:30:27.676Z,39.23
2018-09-15T11:32:56.256Z,38.08
2018-09-15T11:35:24.805Z,37.34
2018-09-15T11:37:53.399Z,36.49
2018-09-15T11:40:21.952Z,37.13
2018-09-15T11:42:51.105Z,37.80
2018-09-15T11:45:20.308Z,39.56
2018-09-15T11:47:48.985Z,38.73
2018-09-15T11:50:17.552Z,37.55
2018-09-15T11:52:46.100Z,38.34
2018-09-15T11:55:15.130Z,37.09
2018-09-15T11:57:44.185Z,37.86
2018-09-15T12:00:12.712Z,36.22
2018-09-15T12:02:41.412Z,38.95
2018-09-15T12:05:10.435Z,38.15
2018-09-15T12:07:40.104Z,37.75
2018-09-15T12:10:09.379Z,36.98
2018-09-15T12:12:37.986Z,35.63
2018-09-15T12:15:07.143Z,37.79
2018-09-15T12:17:35.670Z,37.97
2018-09-15T12:20:05.127Z,36.84
2018-09-15T12:22:34.497Z,34.66
2018-09-15T12:25:03.620Z,33.78
2018-09-15T12:27:32.194Z,32.54
2018-09-15T12:30:00.708Z,34.11
2018-09-15T12:32:29.267Z,36.08
2018-09-15T12:34:57.825Z,35.52
2018-09-15T12:37:27.499Z,37.29
2018-09-15T12:39:56.089Z,34.64
2018-09-15T12:42:24.748Z,36.48
2018-09-15T12:44:53.852Z,36.66
2018-09-15T12:47:22.952Z,35.63
2018-09-15T12:49:52.007Z,34.98
2018-09-15T12:52:20.596Z,33.27
2018-09-15T12:54:49.022Z,34.41
2018-09-15T12:57:17.606Z,34.08
2018-09-15T12:59:46.125Z,33.68
2018-09-15T13:02:15.678Z,37.74
2018-09-15T13:04:44.189Z,37.44
2018-09-15T13:07:12.662Z,36.99
2018-09-15T13:09:41.268Z,37.90
2018-09-15T13:12:10.368Z,36.08
2018-09-15T13:14:40.201Z,35.28
2018-09-15T13:17:09.781Z,34.34
2018-09-15T13:19:38.522Z,33.74
2018-09-15T13:22:07.335Z,33.83
2018-09-15T13:24:35.939Z,33.77
2018-09-15T13:27:04.468Z,32.98
2018-09-15T13:29:33.061Z,31.29
2018-09-15T13:32:01.703Z,31.17
2018-09-15T13:34:30.896Z,31.79
2018-09-15T13:36:59.381Z,33.14
2018-09-15T13:39:29.499Z,33.28
2018-09-15T13:41:58.120Z,33.63
2018-09-15T13:44:26.843Z,34.23
2018-09-15T13:46:56.913Z,34.93
2018-09-15T13:49:25.510Z,36.57
2018-09-15T13:51:54.082Z,35.03
2018-09-15T13:54:22.684Z,36.59
2018-09-15T13:56:51.239Z,38.00
2018-09-15T13:59:20.225Z,38.14
2018-09-15T14:01:48.760Z,38.22
2018-09-15T14:04:17.353Z,35.89
2018-09-15T14:06:45.938Z,36.55
2018-09-15T14:09:15.834Z,37.26
2018-09-15T14:11:44.410Z,37.26
2018-09-15T14:14:13.851Z,38.41
2018-09-15T14:16:42.378Z,36.80
2018-09-15T14:19:10.861Z,38.29
2018-09-15T14:21:39.360Z,37.69
2018-09-15T14:24:08.466Z,35.83
2018-09-15T14:26:37.200Z,35.81
2018-09-15T14:29:05.826Z,36.61
2018-09-15T14:31:34.372Z,38.49
2018-09-15T14:34:02.998Z,38.43
2018-09-15T14:36:31.598Z,37.20
2018-09-15T14:39:00.245Z,39.06
2018-09-15T14:41:28.886Z,39.07
2018-09-15T14:43:58.231Z,39.06
2018-09-15T14:46:26.844Z,40.50
2018-09-15T14:48:55.727Z,39.57
2018-09-15T14:51:24.751Z,40.24
2018-09-15T14:53:53.323Z,39.75
2018-09-15T14:56:22.433Z,39.76
2018-09-15T14:58:50.975Z,40.70
2018-09-15T15:01:19.454Z,40.03
2018-09-15T15:03:48.337Z,39.67
2018-09-15T15:06:17.435Z,39.40
2018-09-15T15:08:45.941Z,39.00
2018-09-15T15:11:14.969Z,40.88
2018-09-15T15:13:44.194Z,40.97
2018-09-15T15:16:12.706Z,41.05
2018-09-15T15:18:41.261Z,41.32
2018-09-15T15:21:10.350Z,40.83
2018-09-15T15:23:38.975Z,40.84
2018-09-15T15:26:08.447Z,41.35
2018-09-15T15:28:37.655Z,41.60
2018-09-15T15:31:07.602Z,42.37
2018-09-15T15:33:36.274Z,42.57
2018-09-15T15:36:05.384Z,41.70
2018-09-15T15:38:34.086Z,42.47
2018-09-15T15:41:03.224Z,43.10
2018-09-15T15:43:31.832Z,42.68
2018-09-15T15:46:00.952Z,43.42
2018-09-15T15:48:30.286Z,42.45
2018-09-15T15:50:59.033Z,43.77
2018-09-15T15:53:29.064Z,43.76
2018-09-15T15:55:58.537Z,44.40
2018-09-15T15:58:27.831Z,44.26
2018-09-15T16:00:57.362Z,44.28
2018-09-15T16:03:26.033Z,43.42
2018-09-15T16:05:56.401Z,43.40
2018-09-15T16:08:24.979Z,44.13
2018-09-15T16:10:53.504Z,43.69
2018-09-15T16:13:22.671Z,43.04
2018-09-15T16:15:51.939Z,43.97
2018-09-15T16:18:20.560Z,43.95
2018-09-15T16:20:49.128Z,44.48
2018-09-15T16:23:17.569Z,44.93
2018-09-15T16:25:47.027Z,43.79
2018-09-15T16:28:15.637Z,45.69
2018-09-15T16:30:44.224Z,45.65
2018-09-15T16:33:12.724Z,45.52
2018-09-15T16:35:42.526Z,46.30
2018-09-15T16:38:11.808Z,46.51
2018-09-15T16:40:40.475Z,45.38
2018-09-15T16:43:08.953Z,45.79
2018-09-15T16:45:38.580Z,47.34
2018-09-15T16:48:07.187Z,48.41
2018-09-15T16:50:35.724Z,49.02
2018-09-15T16:53:04.817Z,49.25
2018-09-15T16:55:34.403Z,49.69
2018-09-15T16:58:03.019Z,49.65
2018-09-15T17:00:31.744Z,50.54
2018-09-15T17:03:01.256Z,50.59
2018-09-15T17:05:30.247Z,53.17
2018-09-15T17:07:59.787Z,53.48
2018-09-15T17:10:28.384Z,53.15
2018-09-15T17:12:57.132Z,53.36
2018-09-15T17:15:25.856Z,53.74
2018-09-15T17:17:55.681Z,53.64
2018-09-15T17:20:24.249Z,53.64
2018-09-15T17:22:52.885Z,54.20
2018-09-15T17:25:22.055Z,55.28
2018-09-15T17:27:50.813Z,56.14
2018-09-15T17:30:20.049Z,54.97
2018-09-15T17:32:49.307Z,55.54
2018-09-15T17:35:18.639Z,56.35
2018-09-15T17:37:47.946Z,57.77
2018-09-15T17:40:16.641Z,59.64
2018-09-15T17:42:45.161Z,60.60
2018-09-15T17:45:13.685Z,61.54
2018-09-15T17:47:42.232Z,62.31
2018-09-15T17:50:10.741Z,62.06
2018-09-15T17:52:40.065Z,62.00
2018-09-15T17:55:08.577Z,62.98
2018-09-15T17:57:37.203Z,64.31
2018-09-15T18:00:06.296Z,63.29
2018-09-15T18:02:35.621Z,62.79
2018-09-15T18:05:04.277Z,63.13
2018-09-15T18:07:32.758Z,63.66
2018-09-15T18:10:02.126Z,63.78
2018-09-15T18:12:30.657Z,65.92
2018-09-15T18:14:59.397Z,66.78
2018-09-15T18:17:27.971Z,67.96
2018-09-15T18:19:57.478Z,67.48
2018-09-15T18:22:26.207Z,67.44
2018-09-15T18:24:54.802Z,67.99
2018-09-15T18:27:23.323Z,67.71
2018-09-15T18:29:51.830Z,67.76
2018-09-15T18:32:20.367Z,69.10
2018-09-15T18:34:49.790Z,68.15
2018-09-15T18:37:18.308Z,67.94
2018-09-15T18:39:48.220Z,68.26
2018-09-15T18:42:16.667Z,70.07
2018-09-15T18:44:45.268Z,71.02
2018-09-15T18:47:13.807Z,69.97
2018-09-15T18:49:42.390Z,70.23
2018-09-15T18:52:10.974Z,70.62
2018-09-15T18:54:39.709Z,70.40
2018-09-15T18:57:08.375Z,70.88
2018-09-15T18:59:37.879Z,70.97
2018-09-15T19:02:06.580Z,71.16
2018-09-15T19:04:35.072Z,71.35
2018-09-15T19:07:03.586Z,71.69
2018-09-15T19:09:32.050Z,72.34
2018-09-15T19:12:00.549Z,72.66
2018-09-15T19:14:29.050Z,73.19
2018-09-15T19:16:57.588Z,72.90
2018-09-15T19:19:26.053Z,73.27
2018-09-15T19:21:55.329Z,73.46
2018-09-15T19:24:23.779Z,74.57
2018-09-15T19:26:52.348Z,74.78
2018-09-15T19:29:20.788Z,74.73
2018-09-15T19:31:49.971Z,75.42
2018-09-15T19:34:18.443Z,75.19
2018-09-15T19:36:46.886Z,75.23
2018-09-15T19:39:15.530Z,75.69
2018-09-15T19:41:43.980Z,76.59
2018-09-15T19:44:13.053Z,76.45
2018-09-15T19:46:41.516Z,76.83
2018-09-15T19:49:10.600Z,75.95
2018-09-15T19:51:39.323Z,75.23
2018-09-15T19:54:07.854Z,75.02
2018-09-15T19:56:36.375Z,75.46
2018-09-15T19:59:04.916Z,75.45
2018-09-15T20:01:33.975Z,76.37
2018-09-15T20:04:02.512Z,76.74
2018-09-15T20:06:31.150Z,76.94
2018-09-15T20:08:59.681Z,76.36
2018-09-15T20:11:28.145Z,76.12
2018-09-15T20:13:58.355Z,76.18
2018-09-15T20:16:25.673Z,75.80
2018-09-15T20:18:53.002Z,77.06
2018-09-15T20:21:20.283Z,76.62
2018-09-15T20:23:49.496Z,76.95
2018-09-15T20:26:18.090Z,76.79
2018-09-15T20:28:46.659Z,78.29
2018-09-15T20:31:15.198Z,77.79
2018-09-15T20:33:43.896Z,78.95
2018-09-15T20:36:12.417Z,79.25
2018-09-15T20:38:41.093Z,79.28
2018-09-15T20:41:09.657Z,80.38
2018-09-15T20:43:38.269Z,81.13
2018-09-15T20:46:06.809Z,80.59
2018-09-15T20:48:35.404Z,78.51
2018-09-15T20:51:03.891Z,79.99
2018-09-15T20:53:33.162Z,78.30
2018-09-15T20:56:01.617Z,80.10
2018-09-15T20:58:30.121Z,79.07
2018-09-15T21:00:58.686Z,80.15
2018-09-15T21:03:27.188Z,79.35
2018-09-15T21:05:56.708Z,79.50
2018-09-15T21:08:25.785Z,79.80
2018-09-15T21:10:54.248Z,81.23
2018-09-15T21:13:22.874Z,80.30
2018-09-15T21:15:51.450Z,79.29
2018-09-15T21:18:19.924Z,79.45
2018-09-15T21:20:48.527Z,80.62
2018-09-15T21:23:17.318Z,81.42
2018-09-15T21:25:45.740Z,81.28
2018-09-15T21:28:14.719Z,79.90
2018-09-15T21:30:43.633Z,79.73
2018-09-15T21:33:12.126Z,80.15
2018-09-15T21:35:40.590Z,80.86
2018-09-15T21:38:09.061Z,81.05
2018-09-15T21:40:38.629Z,81.58
2018-09-15T21:43:07.132Z,82.04
2018-09-15T21:45:36.019Z,82.70
2018-09-15T21:48:04.503Z,82.47
2018-09-15T21:50:32.965Z,82.33
2018-09-15T21:53:01.487Z,82.23
2018-09-15T21:55:31.186Z,82.39
2018-09-15T21:58:00.335Z,83.50
2018-09-15T22:00:28.868Z,82.60
2018-09-15T22:02:57.420Z,82.76
2018-09-15T22:05:25.875Z,81.21
2018-09-15T22:07:54.859Z,81.30
2018-09-15T22:10:24.695Z,81.67
2018-09-15T22:12:53.356Z,82.55
2018-09-15T22:15:28.654Z,81.17
2018-09-15T22:17:58.780Z,81.92
2018-09-15T22:20:27.825Z,81.79
2018-09-15T22:22:56.847Z,81.64
2018-09-15T22:25:25.408Z,83.06
2018-09-15T22:27:54.089Z,82.90
2018-09-15T22:30:22.759Z,81.64
2018-09-15T22:32:51.879Z,82.30
2018-09-15T22:35:20.384Z,81.24
2018-09-15T22:37:48.979Z,81.51
2018-09-15T22:40:20.404Z,80.64
2018-09-15T22:42:48.961Z,81.08
2018-09-15T22:45:18.493Z,81.31
2018-09-15T22:47:46.952Z,81.49
2018-09-15T22:50:16.218Z,82.16
2018-09-15T22:52:44.880Z,81.42
2018-09-15T22:55:13.451Z,80.85
2018-09-15T22:57:42.144Z,81.32
2018-09-15T23:00:10.692Z,83.26
2018-09-15T23:02:39.718Z,83.03
2018-09-15T23:05:08.453Z,80.58
2018-09-15T23:07:37.024Z,80.85
2018-09-15T23:10:07.720Z,80.98
2018-09-15T23:12:36.397Z,81.32
2018-09-15T23:15:05.852Z,82.89
2018-09-15T23:17:34.484Z,83.24
2018-09-15T23:20:02.976Z,83.32
2018-09-15T23:22:31.386Z,82.96
2018-09-15T23:25:00.457Z,82.77
2018-09-15T23:27:28.959Z,81.89
2018-09-15T23:29:58.909Z,83.00
2018-09-15T23:32:27.419Z,82.85
2018-09-15T23:34:56.052Z,83.97
2018-09-15T23:37:24.515Z,84.68
2018-09-15T23:39:53.068Z,83.09
2018-09-15T23:42:21.535Z,83.69
2018-09-15T23:44:50.044Z,84.44
2018-09-15T23:47:18.619Z,83.10
2018-09-15T23:49:47.188Z,82.50
2018-09-15T23:52:16.309Z,82.07
2018-09-15T23:54:44.863Z,82.58
2018-09-15T23:57:13.328Z,81.51
2018-09-15T23:59:41.833Z,82.77
